Time;durP1;ratioP1;P1;durP2;ratioP2;P2;SDS_P1;SDS_P2;PMS_P1;PMS_P2;Temp;Humidity;BMP_temperature;BMP_pressure;BME280_temperature;BME280_humidity;BME280_pressure;Samples;Min_cycle;Max_cycle;Signal;HPM_P1;HPM_P2
2024/04/05 00:00:13;;;;;;;8.17;2.70;;;10.50;99.90;;;11.34;100.00;97782.25;5001125;28;20467;-77
2024/04/05 00:02:41;;;;;;;7.80;2.20;;;10.50;99.90;;;11.35;100.00;97784.63;4997777;28;20474;-77
2024/04/05 00:05:10;;;;;;;7.73;2.30;;;10.50;99.90;;;11.36;100.00;97783.66;4997094;28;20474;-77
2024/04/05 00:07:37;;;;;;;10.73;3.10;;;10.50;99.90;;;11.37;100.00;97780.03;4995982;28;20475;-77
2024/04/05 00:10:07;;;;;;;3.73;2.50;;;10.60;99.90;;;11.32;100.00;97779.81;5001223;28;20549;-77
2024/04/05 00:12:35;;;;;;;9.27;2.10;;;10.50;99.90;;;11.31;100.00;97780.03;4998901;28;20492;-78
2024/04/05 00:15:04;;;;;;;7.77;2.77;;;10.60;99.90;;;11.31;100.00;97775.59;5014594;28;20474;-78
2024/04/05 00:17:30;;;;;;;7.13;2.03;;;10.60;99.90;;;11.32;100.00;97771.94;5002824;28;20481;-77
2024/04/05 00:19:58;;;;;;;14.63;2.20;;;10.50;99.90;;;11.32;100.00;97773.75;5001810;28;20849;-77
2024/04/05 00:22:24;;;;;;;17.50;2.60;;;10.60;99.90;;;11.31;100.00;97778.22;5000181;28;20485;-77
2024/04/05 00:24:55;;;;;;;6.97;2.50;;;10.60;99.90;;;11.34;100.00;97777.81;5003764;28;20481;-77
2024/04/05 00:27:21;;;;;;;9.33;2.23;;;10.60;99.90;;;11.30;100.00;97768.75;5001061;28;20485;-77
2024/04/05 00:29:50;;;;;;;4.87;2.33;;;10.60;99.90;;;11.34;100.00;97762.09;5003440;28;20471;-77
2024/04/05 00:32:17;;;;;;;9.30;2.33;;;10.60;99.90;;;11.38;100.00;97757.28;5003805;28;20494;-77
2024/04/05 00:34:44;;;;;;;12.60;2.27;;;10.60;99.90;;;11.39;100.00;97753.63;4996350;28;21004;-77
2024/04/05 00:37:11;;;;;;;10.60;1.87;;;10.70;99.90;;;11.39;100.00;97758.88;4965409;28;1142688;-77
2024/04/05 00:39:39;;;;;;;10.33;2.60;;;10.70;99.90;;;11.40;100.00;97756.06;5002975;28;20210;-77
2024/04/05 00:42:05;;;;;;;7.30;3.00;;;10.70;99.90;;;11.43;100.00;97750.44;5007686;28;21102;-77
2024/04/05 00:44:33;;;;;;;12.53;1.90;;;10.70;99.90;;;11.44;100.00;97752.06;4998348;28;20482;-77
2024/04/05 00:47:01;;;;;;;16.13;2.53;;;10.70;99.90;;;11.38;100.00;97741.56;5003568;28;20473;-78
2024/04/05 00:49:30;;;;;;;14.53;2.40;;;10.60;99.90;;;11.39;100.00;97743.16;5003674;28;20964;-78
2024/04/05 00:51:58;;;;;;;18.90;2.90;;;10.70;99.90;;;11.42;100.00;97748.03;5004749;28;20919;-77
2024/04/05 00:54:26;;;;;;;8.30;2.33;;;10.70;99.90;;;11.40;100.00;97748.22;5002424;28;20605;-77
2024/04/05 00:56:55;;;;;;;6.27;2.57;;;10.60;99.90;;;11.41;100.00;97754.25;4997942;28;20474;-78
2024/04/05 00:59:24;;;;;;;4.87;2.07;;;10.60;99.90;;;11.38;100.00;97771.19;4999991;28;20501;-77
2024/04/05 01:01:51;;;;;;;4.30;2.30;;;10.60;99.90;;;11.38;100.00;97768.56;4999615;28;20471;-77
2024/04/05 01:04:20;;;;;;;5.37;1.90;;;10.60;99.90;;;11.44;100.00;97767.75;5003324;28;20467;-77
2024/04/05 01:06:47;;;;;;;11.27;2.13;;;10.70;99.90;;;11.45;100.00;97764.13;4998996;28;20708;-78
2024/04/05 01:09:15;;;;;;;16.50;2.00;;;10.70;99.90;;;11.46;100.00;97764.94;5001876;28;20478;-77
2024/04/05 01:11:41;;;;;;;19.57;2.90;;;10.70;99.90;;;11.40;100.00;97766.53;5001072;28;20462;-78
2024/04/05 01:14:09;;;;;;;8.40;2.03;;;10.60;99.90;;;11.42;100.00;97764.53;5001569;28;20470;-77
2024/04/05 01:16:35;;;;;;;4.10;1.83;;;10.70;99.90;;;11.42;100.00;97761.13;4998683;28;20473;-78
2024/04/05 01:19:05;;;;;;;8.67;1.83;;;10.60;99.90;;;11.42;100.00;97768.97;5000746;28;21005;-78
2024/04/05 01:21:33;;;;;;;3.67;1.70;;;10.60;99.90;;;11.41;100.00;97759.50;5000393;28;20491;-77
2024/04/05 01:24:02;;;;;;;8.93;1.90;;;10.60;99.90;;;11.41;100.00;97762.94;5017633;28;20524;-78
2024/04/05 01:26:29;;;;;;;15.03;3.67;;;10.60;99.90;;;11.41;100.00;97762.13;5000002;28;20506;-77
2024/04/05 01:28:56;;;;;;;13.07;2.17;;;10.60;99.90;;;11.44;100.00;97766.94;5004399;28;20523;-78
2024/04/05 01:31:23;;;;;;;5.33;1.93;;;10.60;99.90;;;11.42;100.00;97759.28;5001633;28;20587;-77
2024/04/05 01:33:50;;;;;;;3.10;1.60;;;10.60;99.90;;;11.45;100.00;97756.25;5003560;28;20843;-78
2024/04/05 01:36:17;;;;;;;8.20;1.83;;;10.60;99.90;;;11.44;100.00;97762.53;5000785;28;20501;-77
2024/04/05 01:38:44;;;;;;;15.73;2.40;;;10.60;99.90;;;11.47;100.00;97758.69;5000293;28;21207;-77
2024/04/05 01:41:12;;;;;;;3.30;1.47;;;10.60;99.90;;;11.44;100.00;97765.16;5004845;28;20467;-77
2024/04/05 01:43:40;;;;;;;6.60;2.00;;;10.60;99.90;;;11.38;100.00;97767.75;5005307;28;20833;-77
2024/04/05 01:46:06;;;;;;;8.00;2.47;;;10.60;99.90;;;11.42;100.00;97764.53;5005699;28;20471;-77
2024/04/05 01:48:33;;;;;;;10.13;2.07;;;10.60;99.90;;;11.42;100.00;97768.97;5005001;28;20477;-78
2024/04/05 01:51:00;;;;;;;9.83;2.27;;;10.70;99.90;;;11.48;100.00;97768.16;5006435;28;20450;-78
2024/04/05 01:53:27;;;;;;;5.73;1.77;;;10.70;99.90;;;11.49;100.00;97760.09;5002385;28;20887;-78
2024/04/05 01:55:54;;;;;;;10.17;2.20;;;10.70;99.90;;;11.45;100.00;97768.56;5016482;28;20559;-77
2024/04/05 01:58:23;;;;;;;5.60;1.90;;;10.60;99.90;;;11.45;100.00;97761.50;5001952;28;20536;-77
2024/04/05 02:00:49;;;;;;;15.03;1.67;;;10.60;99.90;;;11.47;100.00;97762.13;5014828;28;20463;-77
2024/04/05 02:03:16;;;;;;;16.30;1.73;;;10.60;99.90;;;11.50;100.00;97771.38;4995833;28;20479;-77
2024/04/05 02:05:43;;;;;;;5.03;1.90;;;10.70;99.90;;;11.52;100.00;97769.38;5001466;28;20517;-77
2024/04/05 02:08:10;;;;;;;4.60;1.40;;;10.70;99.90;;;11.49;100.00;97773.19;4996667;28;20468;-77
2024/04/05 02:10:37;;;;;;;8.43;2.10;;;10.70;99.90;;;11.50;100.00;97774.81;4998695;28;20467;-77
2024/04/05 02:13:04;;;;;;;5.40;1.60;;;10.70;99.90;;;11.49;100.00;97770.56;5010345;28;20490;-77
2024/04/05 02:15:33;;;;;;;5.60;2.03;;;10.70;99.90;;;11.49;100.00;97767.94;4998086;28;20980;-77
2024/04/05 02:18:00;;;;;;;11.40;2.10;;;10.70;99.90;;;11.50;100.00;97761.72;4999839;28;20485;-77
2024/04/05 02:20:27;;;;;;;6.67;2.20;;;10.70;99.90;;;11.52;100.00;97759.69;5000776;28;20470;-77
2024/04/05 02:22:54;;;;;;;4.83;1.83;;;10.70;99.90;;;11.51;100.00;97763.34;5003849;28;20462;-77
2024/04/05 02:25:21;;;;;;;8.33;1.77;;;10.70;99.90;;;11.55;100.00;97764.56;4999890;28;20460;-77
2024/04/05 02:27:48;;;;;;;7.70;2.20;;;10.70;99.90;;;11.55;100.00;97763.75;5008430;28;20486;-76
2024/04/05 02:30:15;;;;;;;34.97;2.63;;;10.70;99.90;;;11.56;100.00;97760.91;4998667;28;20470;-78
2024/04/05 02:32:44;;;;;;;3.83;2.30;;;10.70;99.90;;;11.53;100.00;97765.75;5000701;28;20524;-77
2024/04/05 02:35:10;;;;;;;6.67;2.13;;;10.70;99.90;;;11.56;100.00;97765.34;5012981;28;20727;-77
2024/04/05 02:37:38;;;;;;;5.63;1.80;;;10.80;99.90;;;11.56;100.00;97766.16;4999031;28;20501;-78
2024/04/05 02:40:06;;;;;;;6.23;1.63;;;10.80;99.90;;;11.58;100.00;97761.53;5000058;28;20525;-78
2024/04/05 02:42:33;;;;;;;9.10;1.90;;;10.80;99.90;;;11.60;100.00;97761.31;5001737;28;20833;-78
2024/04/05 02:45:00;;;;;;;2.70;1.50;;;10.80;99.90;;;11.57;100.00;97767.78;4999539;28;20921;-78
2024/04/05 02:47:27;;;;;;;9.23;1.87;;;10.80;99.90;;;11.58;100.00;97764.16;5000596;28;20470;-77
2024/04/05 02:49:55;;;;;;;3.00;1.73;;;10.80;99.90;;;11.58;100.00;97761.53;4995788;28;20477;-77
2024/04/05 02:52:22;;;;;;;5.80;2.00;;;10.80;99.90;;;11.58;100.00;97758.09;5000858;28;20474;-77
2024/04/05 02:54:49;;;;;;;7.33;2.07;;;10.80;99.90;;;11.61;100.00;97752.47;4996391;28;20522;-77
2024/04/05 02:57:17;;;;;;;3.03;1.90;;;10.80;99.90;;;11.60;100.00;97756.09;4993805;28;20466;-77
2024/04/05 02:59:43;;;;;;;7.30;1.87;;;10.80;99.90;;;11.63;100.00;97750.44;4993488;28;20499;-78
2024/04/05 03:02:10;;;;;;;12.83;2.20;;;10.80;99.90;;;11.66;100.00;97755.31;5009066;28;20479;-77
2024/04/05 03:04:37;;;;;;;2.30;1.30;;;10.80;99.90;;;11.61;100.00;97765.56;4996964;28;20494;-78
2024/04/05 03:07:06;;;;;;;8.20;1.77;;;10.80;99.90;;;11.59;100.00;97760.50;4984799;28;20464;-81
2024/04/05 03:09:35;;;;;;;7.27;2.27;;;10.80;99.90;;;11.61;100.00;97768.19;4992226;28;20476;-77
2024/04/05 03:12:03;;;;;;;9.13;1.77;;;10.80;99.90;;;11.59;100.00;97760.50;4991504;28;20456;-77
2024/04/05 03:14:29;;;;;;;9.50;1.93;;;10.80;99.90;;;11.56;100.00;97754.88;4990241;28;20962;-78
2024/04/05 03:16:57;;;;;;;4.63;1.90;;;10.70;99.90;;;11.49;100.00;97765.34;4994407;28;20488;-77
2024/04/05 03:19:23;;;;;;;6.97;1.90;;;10.60;99.90;;;11.49;100.00;97764.53;4994453;28;20497;-77
2024/04/05 03:21:51;;;;;;;16.20;2.20;;;10.70;99.90;;;11.48;100.00;97762.94;5006329;28;20474;-77
2024/04/05 03:24:19;;;;;;;10.80;1.60;;;10.70;99.90;;;11.48;100.00;97760.31;4989686;28;20479;-79
2024/04/05 03:26:46;;;;;;;41.63;17.63;;;10.70;99.90;;;11.45;100.00;97751.03;4990946;28;20498;-75
2024/04/05 03:29:14;;;;;;;11.33;5.00;;;10.60;99.90;;;11.45;100.00;97753.63;4993378;28;20477;-76
2024/04/05 03:31:42;;;;;;;4.50;2.03;;;10.60;99.90;;;11.44;100.00;97756.47;4998212;28;20483;-77
2024/04/05 03:34:08;;;;;;;6.27;2.17;;;10.60;99.90;;;11.43;100.00;97737.34;4993106;28;20487;-77
2024/04/05 03:36:36;;;;;;;11.50;1.97;;;10.60;99.90;;;11.41;100.00;97735.94;4993174;28;20471;-76
2024/04/05 03:39:05;;;;;;;13.10;2.00;;;10.60;99.90;;;11.37;100.00;97730.28;4994072;28;20522;-76
2024/04/05 03:41:34;;;;;;;6.77;1.97;;;10.60;99.90;;;11.35;100.00;97729.66;4995509;28;21735;-77
2024/04/05 03:44:00;;;;;;;8.73;1.93;;;10.50;99.90;;;11.34;100.00;97720.22;4996943;28;20589;-76
2024/04/05 03:46:28;;;;;;;5.23;1.87;;;10.60;99.90;;;11.35;100.00;97721.81;4997933;28;20893;-76
2024/04/05 03:48:55;;;;;;;4.63;1.67;;;10.50;99.90;;;11.34;100.00;97725.47;5008873;28;20826;-77
2024/04/05 03:51:22;;;;;;;7.47;2.20;;;10.50;99.90;;;11.34;100.00;97729.88;4992083;28;20478;-76
2024/04/05 03:53:48;;;;;;;4.97;2.10;;;10.50;99.90;;;11.33;100.00;97731.69;4996742;28;20472;-76
2024/04/05 03:56:16;;;;;;;10.43;2.93;;;10.50;99.90;;;11.31;100.00;97732.91;4987824;28;20471;-79
2024/04/05 03:58:46;;;;;;;15.27;2.23;;;10.50;99.90;;;11.32;100.00;97729.25;4989748;28;20502;-77
2024/04/05 04:01:14;;;;;;;3.10;1.50;;;10.50;99.90;;;11.32;100.00;97737.13;4993845;28;20481;-76
2024/04/05 04:03:40;;;;;;;8.57;2.27;;;10.50;99.90;;;11.30;100.00;97734.72;5013350;28;20482;-77
2024/04/05 04:06:08;;;;;;;7.97;2.00;;;10.50;99.90;;;11.34;100.00;97745.59;5000433;28;20946;-77
2024/04/05 04:08:34;;;;;;;2.77;1.87;;;10.50;99.90;;;11.29;100.00;97737.50;4999212;28;20489;-77
2024/04/05 04:11:01;;;;;;;7.23;1.80;;;10.50;99.90;;;11.29;100.00;97735.72;4996631;28;20460;-77
2024/04/05 04:13:28;;;;;;;5.33;1.97;;;10.50;99.90;;;11.32;100.00;97748.41;4997835;28;20459;-77
2024/04/05 04:15:57;;;;;;;10.70;2.57;;;10.50;99.90;;;11.26;100.00;97743.97;4994724;28;20846;-77
2024/04/05 04:18:23;;;;;;;4.50;1.97;;;10.50;99.90;;;11.28;100.00;97744.56;4994594;28;20485;-77
2024/04/05 04:20:51;;;;;;;4.90;1.80;;;10.50;99.90;;;11.25;100.00;97747.56;5006699;28;20470;-77
2024/04/05 04:23:17;;;;;;;13.40;2.30;;;10.50;99.90;;;11.26;100.00;97738.72;4997360;28;20467;-76
2024/04/05 04:25:46;;;;;;;9.63;2.70;;;10.50;99.90;;;11.22;100.00;97732.28;4994599;28;20719;-77
2024/04/05 04:28:12;;;;;;;9.50;2.00;;;10.40;99.90;;;11.23;100.00;97720.81;5000434;28;20459;-77
2024/04/05 04:30:41;;;;;;;15.30;2.33;;;10.40;99.90;;;11.24;100.00;97725.03;4995682;28;20839;-77
2024/04/05 04:33:10;;;;;;;4.67;1.97;;;10.40;99.90;;;11.19;100.00;97722.19;4993450;28;20967;-77
2024/04/05 04:35:38;;;;;;;8.70;2.17;;;10.40;99.90;;;11.20;100.00;97723.00;4994382;28;20477;-76
2024/04/05 04:38:04;;;;;;;48.13;14.93;;;10.40;99.90;;;11.18;100.00;97736.28;4992780;28;21031;-78
2024/04/05 04:40:32;;;;;;;15.40;2.77;;;10.40;99.90;;;11.16;100.00;97748.78;4991872;28;20470;-76
2024/04/05 04:42:59;;;;;;;19.67;2.50;;;10.30;99.90;;;11.13;100.00;97740.50;5000014;28;20475;-76
2024/04/05 04:45:26;;;;;;;15.80;2.30;;;10.30;99.90;;;11.12;100.00;97737.09;4988208;28;20470;-76
2024/04/05 04:47:53;;;;;;;5.83;1.70;;;10.30;99.90;;;11.10;100.00;97745.16;4990814;28;20477;-76
2024/04/05 04:50:22;;;;;;;5.80;2.13;;;10.30;99.90;;;11.08;100.00;97741.91;4994192;28;20849;-75
2024/04/05 04:52:48;;;;;;;3.40;1.90;;;10.20;99.90;;;11.08;100.00;97741.91;5006254;28;20489;-76
2024/04/05 04:55:16;;;;;;;27.37;16.03;;;10.20;99.90;;;11.06;100.00;97743.13;4988565;28;20481;-78
2024/04/05 04:57:42;;;;;;;9.17;5.13;;;10.20;99.90;;;11.01;100.00;97745.50;4990338;28;20992;-77
2024/04/05 05:00:16;;;;;;;9.03;2.83;;;10.20;99.90;;;10.96;100.00;97738.25;4986541;28;20506;-76
2024/04/05 05:02:43;;;;;;;7.93;2.70;;;10.20;99.90;;;10.98;100.00;97735.44;4988848;28;20462;-77
2024/04/05 05:05:12;;;;;;;10.20;2.83;;;10.20;99.90;;;11.00;100.00;97738.69;4996213;28;20482;-77
2024/04/05 05:07:40;;;;;;;7.43;2.60;;;10.20;99.90;;;10.96;100.00;97742.69;4993122;28;20510;-75
2024/04/05 05:10:09;;;;;;;6.90;2.33;;;10.20;99.90;;;10.95;100.00;97747.09;5009731;28;20877;-77
2024/04/05 05:12:36;;;;;;;9.33;3.00;;;10.20;99.90;;;10.93;100.00;97748.31;4993964;28;20460;-76
2024/04/05 05:15:04;;;;;;;12.30;1.97;;;10.20;99.90;;;10.95;100.00;97746.28;4996764;28;20467;-77
2024/04/05 05:17:30;;;;;;;6.47;2.43;;;10.10;99.90;;;10.93;100.00;97754.31;5000843;28;20470;-77
2024/04/05 05:19:59;;;;;;;6.03;2.30;;;10.10;99.90;;;10.91;100.00;97756.34;4996330;28;20834;-77
2024/04/05 05:22:25;;;;;;;5.17;1.90;;;10.10;99.90;;;10.89;100.00;97762.78;4998216;28;20905;-77
2024/04/05 05:24:54;;;;;;;7.90;2.30;;;10.10;99.90;;;10.87;100.00;97751.69;4999505;28;20501;-76
2024/04/05 05:27:20;;;;;;;5.07;2.13;;;10.00;99.90;;;10.86;100.00;97742.25;5000911;28;20501;-77
2024/04/05 05:29:48;;;;;;;6.67;2.37;;;10.10;99.90;;;10.88;100.00;97740.22;5003073;28;20745;-76
2024/04/05 05:32:14;;;;;;;6.40;1.90;;;10.00;99.90;;;10.85;100.00;97740.63;4998268;28;21117;-76
2024/04/05 05:34:41;;;;;;;4.43;1.70;;;10.00;99.90;;;10.85;100.00;97746.66;5014522;28;20473;-76
2024/04/05 05:37:08;;;;;;;9.23;2.53;;;10.00;99.90;;;10.85;100.00;97746.66;4998197;28;20474;-76
2024/04/05 05:39:35;;;;;;;6.70;2.40;;;10.00;99.90;;;10.89;100.00;97749.69;4990892;28;20501;-76
2024/04/05 05:42:04;;;;;;;8.70;2.30;;;10.00;99.90;;;10.88;100.00;97746.28;4997350;28;20470;-77
2024/04/05 05:44:32;;;;;;;4.93;2.20;;;10.10;99.90;;;10.89;100.00;97752.31;4995960;28;20478;-76
2024/04/05 05:46:59;;;;;;;8.73;1.90;;;10.10;99.90;;;10.88;100.00;97756.75;5013390;28;20465;-76
2024/04/05 05:49:26;;;;;;;3.93;2.43;;;10.10;99.90;;;10.92;100.00;97770.25;4999490;28;22139;-76
2024/04/05 05:51:53;;;;;;;11.90;3.07;;;10.10;99.90;;;10.96;100.00;97771.47;4993940;28;20478;-76
2024/04/05 05:54:20;;;;;;;14.60;2.47;;;10.10;99.90;;;10.98;100.00;97761.59;4996105;28;20471;-77
2024/04/05 05:56:46;;;;;;;10.33;2.30;;;10.20;99.90;;;11.03;100.00;97759.22;5008741;28;20875;-76
2024/04/05 05:59:15;;;;;;;7.10;3.53;;;10.20;99.90;;;11.10;100.00;97760.03;4994918;28;20507;-76
2024/04/05 06:01:42;;;;;;;7.03;4.37;;;10.30;99.90;;;11.16;100.00;97756.63;4990467;28;20557;-76
2024/04/05 06:04:10;;;;;;;17.03;7.50;;;10.40;99.90;;;11.23;100.00;97754.03;4999920;28;20968;-77
2024/04/05 06:06:37;;;;;;;10.10;5.13;;;10.40;99.90;;;11.27;100.00;97740.34;4997637;28;20480;-77
2024/04/05 06:09:07;;;;;;;10.80;5.10;;;10.50;99.90;;;11.33;100.00;97728.25;4999251;28;20477;-77
2024/04/05 06:11:34;;;;;;;15.03;5.63;;;10.50;99.90;;;11.39;100.00;97728.25;5013263;28;20473;-77
2024/04/05 06:14:01;;;;;;;10.47;3.90;;;10.60;99.90;;;11.45;100.00;97726.69;4999914;28;20981;-77
2024/04/05 06:16:29;;;;;;;14.27;4.97;;;10.60;99.90;;;11.50;100.00;97714.59;5001905;28;20482;-77
2024/04/05 06:18:57;;;;;;;18.20;5.27;;;10.70;99.90;;;11.55;100.00;97711.38;5001199;28;20857;-77
2024/04/05 06:21:24;;;;;;;10.87;4.43;;;10.70;99.90;;;11.56;100.00;97713.78;4999009;28;20471;-77
2024/04/05 06:23:51;;;;;;;15.87;4.93;;;10.80;99.90;;;11.60;100.00;97706.31;5013129;28;20472;-77
2024/04/05 06:26:18;;;;;;;5.57;4.30;;;10.80;99.90;;;11.63;100.00;97702.53;5000082;28;20485;-76
2024/04/05 06:28:45;;;;;;;17.63;5.40;;;10.80;99.90;;;11.65;100.00;97703.09;4996598;28;20470;-76
2024/04/05 06:31:12;;;;;;;8.70;4.00;;;10.80;99.90;;;11.68;100.00;97705.31;5014145;28;20538;-77
2024/04/05 06:33:40;;;;;;;7.37;3.50;;;10.90;99.90;;;11.73;100.00;97701.09;5000039;28;20469;-77
2024/04/05 06:36:09;;;;;;;7.70;3.43;;;10.90;99.90;;;11.75;100.00;97695.69;4997304;28;20472;-76
2024/04/05 06:38:36;;;;;;;15.83;4.60;;;10.90;99.90;;;11.78;100.00;97690.84;5001597;28;20680;-76
2024/04/05 06:41:04;;;;;;;10.83;3.20;;;11.00;99.90;;;11.82;100.00;97683.38;4996181;28;20463;-77
2024/04/05 06:43:32;;;;;;;9.10;2.63;;;11.00;99.90;;;11.87;100.00;97686.22;4995912;28;20453;-76
2024/04/05 06:46:03;;;;;;;8.07;3.20;;;11.00;99.90;;;11.90;100.00;97693.66;4998820;28;20472;-77
2024/04/05 06:48:32;;;;;;;4.73;3.17;;;11.10;99.90;;;11.92;100.00;97687.19;5000028;28;20482;-77
2024/04/05 06:51:00;;;;;;;18.13;3.20;;;11.20;99.90;;;11.96;100.00;97690.22;4997624;28;20466;-76
2024/04/05 06:53:28;;;;;;;8.90;2.73;;;11.20;99.90;;;12.00;100.00;97704.53;5012199;28;20462;-77
2024/04/05 06:55:55;;;;;;;3.30;2.20;;;11.20;99.90;;;12.04;100.00;97706.50;4993762;28;20484;-76
2024/04/05 06:58:23;;;;;;;8.07;2.90;;;11.30;99.90;;;12.09;100.00;97719.00;4985710;28;20883;-76
2024/04/05 07:00:49;;;;;;;9.30;2.50;;;11.30;99.90;;;12.11;100.00;97714.38;4990763;28;20857;-77
2024/04/05 07:03:18;;;;;;;13.53;6.27;;;11.40;99.90;;;12.17;100.00;97697.84;5006784;28;21030;-79
2024/04/05 07:05:45;;;;;;;20.43;10.77;;;11.40;99.90;;;12.23;100.00;97694.38;5013614;28;20467;-76
2024/04/05 07:08:13;;;;;;;11.07;4.53;;;11.40;99.90;;;12.28;100.00;97691.97;4992567;28;20472;-76
2024/04/05 07:10:40;;;;;;;12.60;3.90;;;11.50;99.90;;;12.31;100.00;97691.53;4997172;28;20473;-76
2024/04/05 07:13:07;;;;;;;14.93;4.97;;;11.50;99.90;;;12.34;100.00;97691.13;4998162;28;20505;-76
2024/04/05 07:15:37;;;;;;;12.13;3.17;;;11.60;99.90;;;12.37;100.00;97690.72;5002930;28;20473;-75
2024/04/05 07:18:08;;;;;;;7.53;3.10;;;11.60;99.90;;;12.38;100.00;97681.84;4995001;28;20465;-77
2024/04/05 07:20:38;;;;;;;12.57;3.17;;;11.60;99.90;;;12.41;100.00;97673.56;4996770;28;20522;-77
2024/04/05 07:23:06;;;;;;;8.60;3.60;;;11.70;99.90;;;12.45;100.00;97673.94;4998348;28;20467;-78
2024/04/05 07:25:34;;;;;;;14.90;3.50;;;11.60;99.90;;;12.47;100.00;97667.47;5001404;28;21025;-77
2024/04/05 07:28:03;;;;;;;12.97;4.27;;;11.70;99.90;;;12.53;100.00;97674.50;4995593;28;20479;-76
2024/04/05 07:30:32;;;;;;;18.53;4.53;;;11.80;99.90;;;12.57;100.00;97675.69;4990115;28;20470;-76
2024/04/05 07:33:01;;;;;;;10.60;2.97;;;11.80;99.90;;;12.59;100.00;97662.38;4996626;28;20569;-77
2024/04/05 07:35:29;;;;;;;5.67;3.63;;;11.90;99.90;;;12.63;100.00;97674.09;4993608;28;20464;-77
2024/04/05 07:37:57;;;;;;;13.73;3.80;;;11.80;99.90;;;12.69;100.00;97672.44;4993353;28;20474;-77
2024/04/05 07:40:26;;;;;;;11.03;3.17;;;11.90;99.90;;;12.72;100.00;97670.19;4987442;28;20491;-76
2024/04/05 07:42:56;;;;;;;7.20;2.80;;;11.90;99.90;;;12.77;100.00;97665.13;4989680;28;20479;-76
2024/04/05 07:45:25;;;;;;;8.70;2.93;;;12.00;99.90;;;12.83;100.00;97666.09;5006605;28;20475;-80
2024/04/05 07:47:53;;;;;;;27.43;13.33;;;12.10;99.90;;;12.90;100.00;97664.25;5007974;28;20470;-76
2024/04/05 07:50:21;;;;;;;13.80;6.50;;;12.20;99.90;;;12.97;100.00;97657.13;5010422;28;20464;-76
2024/04/05 07:52:53;;;;;;;15.80;3.43;;;12.30;99.90;;;13.04;100.00;97665.78;4997203;28;20472;-76
2024/04/05 07:55:19;;;;;;;6.23;1.83;;;12.40;99.90;;;13.11;100.00;97650.81;4997648;28;20958;-75
2024/04/05 07:57:47;;;;;;;5.50;2.43;;;12.40;99.90;;;13.17;100.00;97649.97;4995784;28;20854;-75
2024/04/05 08:00:15;;;;;;;5.77;1.90;;;12.50;99.90;;;13.23;100.00;97646.47;4997281;28;20527;-76
2024/04/05 08:02:47;;;;;;;6.57;2.03;;;12.60;99.90;;;13.28;100.00;97643.22;4996863;28;20520;-76
2024/04/05 08:05:14;;;;;;;5.87;2.30;;;12.60;99.90;;;13.34;100.00;97640.53;4999648;28;20555;-76
2024/04/05 08:07:42;;;;;;;10.50;2.20;;;12.70;99.90;;;13.40;100.00;97642.28;4998782;28;20471;-76
2024/04/05 08:10:09;;;;;;;4.60;2.40;;;12.80;99.90;;;13.47;100.00;97642.25;4994631;28;20992;-76
2024/04/05 08:12:37;;;;;;;8.97;2.33;;;12.80;99.90;;;13.52;100.00;97643.22;4991750;28;20521;-76
2024/04/05 08:15:04;;;;;;;2.50;1.70;;;12.90;99.90;;;13.57;100.00;97653.88;4993321;28;20468;-76
2024/04/05 08:17:33;;;;;;;6.30;1.87;;;12.90;99.90;;;13.66;100.00;97653.59;4996736;28;20484;-77
2024/04/05 08:20:01;;;;;;;5.93;1.50;;;13.00;99.90;;;13.72;100.00;97655.38;5008159;28;20950;-76
2024/04/05 08:22:28;;;;;;;1.67;1.30;;;13.10;99.90;;;13.81;100.00;97665.41;4991208;28;20467;-76
2024/04/05 08:24:57;;;;;;;4.30;1.47;;;13.20;99.90;;;13.87;100.00;97666.34;4994587;28;20471;-76
2024/04/05 08:27:25;;;;;;;2.77;1.30;;;13.30;99.90;;;13.97;100.00;97677.16;4989192;28;20479;-75
2024/04/05 08:29:52;;;;;;;5.53;1.70;;;13.40;99.90;;;14.04;100.00;97672.66;4992221;28;21029;-76
2024/04/05 08:32:19;;;;;;;1.60;1.50;;;13.50;99.90;;;14.10;100.00;97680.47;4989843;28;20464;-75
2024/04/05 08:34:47;;;;;;;1.77;1.20;;;13.60;99.90;;;14.19;100.00;97685.44;4994561;28;20475;-76
2024/04/05 08:37:14;;;;;;;2.60;1.50;;;13.60;99.90;;;14.29;100.00;97686.53;4991724;28;20865;-76
2024/04/05 08:39:42;;;;;;;5.90;2.50;;;13.70;99.90;;;14.35;100.00;97688.31;4998287;28;20495;-76
2024/04/05 08:42:14;;;;;;;2.90;1.70;;;13.80;99.90;;;14.41;100.00;97695.34;4996596;28;20471;-79
2024/04/05 08:44:45;;;;;;;2.20;1.20;;;13.80;99.90;;;14.45;100.00;97696.50;5002018;28;20456;-78
2024/04/05 08:47:12;;;;;;;2.63;1.50;;;13.90;99.90;;;14.53;100.00;97695.41;5001114;28;20479;-78
2024/04/05 08:49:41;;;;;;;4.35;1.70;;;14.10;99.90;;;14.57;100.00;97705.28;5004025;28;20485;-79
2024/04/05 08:52:10;;;;;;;19.83;12.00;;;14.10;99.90;;;14.63;100.00;97714.13;5014616;28;20200;-82
2024/04/05 08:54:36;;;;;;;4.10;1.33;;;14.10;99.90;;;14.63;100.00;97714.13;5001554;28;20548;-79
2024/04/05 08:57:06;;;;;;;6.00;1.70;;;14.00;99.90;;;14.69;100.00;97701.88;4999936;28;20464;-79
2024/04/05 08:59:33;;;;;;;2.60;1.70;;;14.10;99.90;;;14.75;100.00;97690.50;5001632;28;21023;-78
2024/04/05 09:02:03;;;;;;;3.20;1.53;;;14.20;99.90;;;14.81;100.00;97694.88;5001917;28;20468;-79
2024/04/05 09:04:30;;;;;;;7.93;1.80;;;14.20;99.90;;;14.86;100.00;97682.63;5003187;28;20872;-78
2024/04/05 09:06:58;;;;;;;1.63;1.40;;;14.20;99.90;;;14.96;100.00;97697.91;4996287;28;20475;-78
2024/04/05 09:09:28;;;;;;;10.43;1.60;;;14.40;99.90;;;15.06;100.00;97704.22;5015695;28;20475;-77
2024/04/05 09:12:03;;;;;;;5.60;1.50;;;14.50;99.90;;;15.10;100.00;97723.00;4997476;28;20482;-78
2024/04/05 09:14:29;;;;;;;2.70;1.40;;;14.50;99.90;;;15.15;100.00;97717.09;5016228;28;20468;-78
2024/04/05 09:16:58;;;;;;;74.17;46.17;;;14.50;99.90;;;15.22;100.00;97718.59;5001801;28;20490;-83
2024/04/05 09:19:25;;;;;;;45.50;23.97;;;14.60;99.90;;;15.27;100.00;97707.41;4995994;28;20513;-79
2024/04/05 09:21:53;;;;;;;2.17;1.40;;;14.70;99.90;;;15.32;100.00;97696.97;5002411;28;20471;-79
2024/04/05 09:24:19;;;;;;;5.63;1.50;;;14.80;99.90;;;15.38;100.00;97707.41;5023249;28;20982;-79
2024/04/05 09:27:00;;;;;;;10.83;1.70;;;14.80;99.90;;;15.39;100.00;97693.22;5017907;28;20505;-79
2024/04/05 09:29:27;;;;;;;3.43;1.43;;;14.80;99.90;;;15.43;100.00;97699.66;5006075;28;20463;-79
2024/04/05 09:31:55;;;;;;;1.93;1.53;;;14.90;99.90;;;15.46;100.00;97699.19;5015130;28;20989;-78
2024/04/05 09:34:25;;;;;;;4.80;1.73;;;14.90;99.90;;;15.49;100.00;97696.13;5004939;28;20470;-78
2024/04/05 09:36:53;;;;;;;4.60;1.60;;;14.90;99.90;;;15.53;100.00;97688.56;5006773;28;20455;-78
2024/04/05 09:39:22;;;;;;;1.83;1.20;;;14.90;99.90;;;15.56;100.00;97694.19;5020814;28;20467;-78
2024/04/05 09:41:55;;;;;;;2.10;1.50;;;14.90;99.90;;;15.65;100.00;97688.59;5005487;28;20968;-78
2024/04/05 09:44:21;;;;;;;2.23;1.97;;;15.00;99.90;;;15.72;100.00;97702.47;5002494;28;20555;-79
2024/04/05 09:46:50;;;;;;;6.10;1.70;;;15.10;99.90;;;15.80;100.00;97673.13;5006186;28;20497;-78
2024/04/05 09:49:16;;;;;;;2.70;1.50;;;15.20;99.90;;;15.87;100.00;97700.97;5004713;28;20484;-78
2024/04/05 09:51:46;;;;;;;4.77;1.60;;;15.30;99.90;;;15.94;100.00;97690.31;5016346;28;20927;-79
2024/04/05 09:54:15;;;;;;;3.47;1.57;;;15.30;99.90;;;16.01;100.00;97696.28;5006299;28;20877;-79
2024/04/05 09:56:44;;;;;;;53.67;29.30;;;15.50;99.90;;;16.02;100.00;97693.44;5004813;28;20466;-85
2024/04/05 09:59:18;;;;;;;5.23;1.43;;;15.40;99.90;;;16.09;100.00;97693.31;5002908;28;21072;-79
2024/04/05 10:01:47;;;;;;;3.10;1.30;;;15.60;99.90;;;16.13;100.00;97686.53;5003839;28;20966;-80
2024/04/05 10:04:14;;;;;;;5.93;2.33;;;15.70;99.90;;;16.18;100.00;97689.28;5003549;28;20460;-86
2024/04/05 10:06:43;;;;;;;12.13;6.00;;;15.60;99.90;;;16.23;100.00;97691.22;5003713;28;20495;-80
2024/04/05 10:09:16;;;;;;;3.27;1.80;;;15.70;99.90;;;16.26;100.00;97691.56;5001974;28;21039;-79
2024/04/05 10:11:45;;;;;;;2.93;1.43;;;15.70;99.90;;;16.36;100.00;97699.69;4999737;28;20975;-79